Air Resources Laboratory banner image
Air Resources Laboratory web site National Oceanic and Atmospheric Administration (NOAA)

ar metar

KARG 182256Z AUTO 08010KT 10SM CLR 09/05 A2988 RMK AO2 SLP122 T00940050=
KASG 182248Z 18012KT 2 1/2SM RA SCT032 OVC037 15/13 A2980=
KBPK 182253Z AUTO 14006KT 10SM -RA OVC090 14/05 A2982 RMK AO2 RAB2154E09B53
 SLP096 P0000 T01390050=
KBVX 182256Z AUTO 10007KT 7SM OVC090 10/06 A2988 RMK AO2 SLP121 T01000056=
KCDH 182255Z AUTO 09003KT 10SM BKN031 20/11 A2979 RMK AO2=
KDEQ 182253Z AUTO 07008KT 10SM BKN020 OVC028 15/13 A2976 RMK AO2 SLP075
KELD 182253Z AUTO 07006KT 10SM OVC029 19/15 A2979 RMK AO2 SLP084 T01940150=
KFLP 182256Z AUTO 12008KT 10SM BKN090 14/05 A2982 RMK AO2 SLP096 T01440050=
KFSM 182253Z 09011G16KT 10SM SCT035 18/09 A2975 RMK AO2 SLP071 T01780094=
KFYV 182253Z 14003KT 5SM -RA BR FEW032 BKN055 OVC075 13/12 A2979 RMK AO2 RAB11
 SLP086 P0008 T01280122=
KHKA 182253Z AUTO 02007KT 10SM BKN110 11/06 A2991 RMK AO2 SLP128 T01060056 $=
KHOT 182253Z AUTO 06007KT 10SM OVC030 13/12 A2983 RMK AO2 LTG DSNT NE AND E
 RAB2154E40 SLP097 P0001 T01330117=
KHRO 182253Z AUTO 11010KT 10SM OVC075 14/05 A2980 RMK AO2 SLP090 T01440050=
KJBR 182253Z AUTO 07008KT 7SM BKN095 10/07 A2988 RMK AO2 RAB33E49 SLP118 P0000
KLIT 182253Z 07007KT 7SM RA BKN060 BKN095 OVC110 12/08 A2986 RMK AO2 LTG DSNT W
 AND NW RAB31 SLP114 CB DSNT SW-W MOV NE P0000 T01170083 $=
KLLQ 182253Z AUTO 07009KT 10SM CLR 18/09 A2980 RMK AO2 SLP091 T01780094 $=
KLRF 182256Z 05006KT 10SM -RA BKN060 11/08 A2986 RMK AO2A LTG DSNT W
 DZB2156E01RAB01E37DZB37E41DZB47E48RAB48 SLP115 P0000 T01130083=
KMWT 182253Z AUTO 00000KT 6SM BR FEW003 OVC023 12/12 A2978 RMK AO2 RAE2154
 SLP083 P0000 T01220122 $=
KPBF 182253Z AUTO 09009KT 10SM CLR 17/08 A2982 RMK AO2 SLP096 T01720078=
KROG 182258Z 18012KT 10SM -RA SCT037 BKN046 OVC055 17/08 A2979 RMK AO2 LTG DSNT
 W TSB37E52RAB50 PRESRR SLP087 P0000 T01670083=
KRUE 182253Z AUTO 04004KT 2SM TSRA BR FEW033 BKN055 OVC085 11/10 A2985 RMK AO2
 LTG DSNT N AND SE AND NW RAB24 TSB41 SLP103 P0012 T01110100=
KSGT 182256Z AUTO 03008KT 10SM SCT070 SCT100 BKN110 14/08 A2985 RMK AO2 SLP107
KSLG 182256Z AUTO 23005KT 5SM +RA BR BKN041 OVC050 13/12 A2979 RMK AO2 LTG DSNT
 N AND NW TSB14E52RAB14 SLP089 P0016 T01280117=
KSRC 182256Z AUTO 07006KT 1 1/2SM +RA BR FEW030 BKN039 OVC080 09/09 A2988 RMK
 AO2 SLP128 P0025 T00940094=
KTXK 182253Z 00000KT 10SM BKN019 OVC027 19/16 A2976 RMK AO2 SLP076 T01890156 $=
KVBT 182256Z AUTO 21011G22KT 4SM RA BKN060 OVC085 15/12 A2981 RMK AO2 LTG DSNT
 W AND NW TSB37E52RAB22 SLP097 P0002 T01500117=
KXNA 182253Z 21010KT 1 1/2SM +RA BR BKN044 OVC055 14/13 A2979 RMK AO2 LTG DSNT
 W AND NW RAB16 TSB37E52 SLP087 P0013 T01390128=